createdAt,value
2022-08-10T00:00:26.993Z,21.16
2022-08-10T00:10:31.020Z,20.80
2022-08-10T00:20:36.083Z,20.59
2022-08-10T00:30:41.155Z,20.39
2022-08-10T00:40:46.322Z,20.20
2022-08-10T00:50:51.356Z,20.52
2022-08-10T01:00:56.450Z,20.23
2022-08-10T01:12:37.408Z,20.08
2022-08-10T01:22:12.333Z,20.01
2022-08-10T01:32:27.606Z,20.04
2022-08-10T01:42:34.298Z,19.74
2022-08-10T01:52:43.827Z,19.59
2022-08-10T02:02:49.957Z,19.65
2022-08-10T02:12:57.369Z,19.50
2022-08-10T02:23:05.896Z,19.35
2022-08-10T02:33:11.967Z,19.30
2022-08-10T02:45:18.928Z,19.36
2022-08-10T02:53:56.215Z,19.21
2022-08-10T03:04:04.562Z,19.04
2022-08-10T03:14:11.313Z,18.98
2022-08-10T03:24:30.058Z,19.05
2022-08-10T03:34:40.053Z,18.91
2022-08-10T03:44:49.853Z,18.85
2022-08-10T03:54:56.095Z,19.03
2022-08-10T04:04:59.798Z,18.82
2022-08-10T04:15:05.453Z,18.73
2022-08-10T04:25:11.687Z,18.76
2022-08-10T04:35:18.221Z,18.56
2022-08-10T04:45:22.064Z,18.57
2022-08-10T04:55:47.207Z,18.80
2022-08-10T05:05:51.053Z,18.73
2022-08-10T05:15:57.858Z,18.99
2022-08-10T05:26:01.666Z,19.06
2022-08-10T05:36:08.927Z,19.20
2022-08-10T05:46:19.567Z,19.59
2022-08-10T05:56:26.003Z,19.49
2022-08-10T06:06:35.069Z,19.77
2022-08-10T06:16:40.838Z,20.37
2022-08-10T06:26:44.877Z,20.99
2022-08-10T06:36:50.988Z,21.26
2022-08-10T06:46:57.679Z,21.61
2022-08-10T06:57:18.243Z,22.03
2022-08-10T07:07:27.899Z,22.46
2022-08-10T07:17:39.084Z,23.28
2022-08-10T07:27:58.848Z,23.23
2022-08-10T07:38:08.613Z,23.56
2022-08-10T07:48:17.140Z,23.73
2022-08-10T07:58:26.794Z,23.87
2022-08-10T08:08:33.491Z,24.25
2022-08-10T08:18:45.671Z,24.75
2022-08-10T08:29:04.859Z,24.70
2022-08-10T08:39:11.759Z,25.11
2022-08-10T08:49:41.390Z,25.35
2022-08-10T09:00:10.393Z,26.07
2022-08-10T09:10:27.650Z,26.06
2022-08-10T09:20:38.397Z,26.53
2022-08-10T09:31:10.819Z,27.24
2022-08-10T09:41:27.148Z,27.66
2022-08-10T09:51:45.948Z,27.87
2022-08-10T10:02:02.981Z,27.72
2022-08-10T10:12:20.886Z,28.40
2022-08-10T10:22:46.956Z,28.38
2022-08-10T10:33:01.387Z,28.88
2022-08-10T10:43:17.045Z,29.04
2022-08-10T10:53:29.256Z,28.70
2022-08-10T11:03:54.012Z,28.95
2022-08-10T11:14:26.704Z,29.35
2022-08-10T11:24:49.842Z,29.06
2022-08-10T11:35:10.322Z,29.38
2022-08-10T11:45:23.377Z,29.23
2022-08-10T11:55:32.937Z,29.28
2022-08-10T12:05:52.201Z,29.82
2022-08-10T12:16:05.990Z,29.25
2022-08-10T12:26:17.553Z,29.85
2022-08-10T12:36:27.738Z,29.97
2022-08-10T12:46:40.634Z,29.88
2022-08-10T12:56:50.128Z,30.42
2022-08-10T13:06:56.615Z,30.46
2022-08-10T13:17:02.644Z,29.98
2022-08-10T13:27:26.991Z,30.54
2022-08-10T13:37:37.498Z,30.73
2022-08-10T13:47:48.711Z,30.60
2022-08-10T13:57:58.936Z,30.93
2022-08-10T14:08:06.793Z,31.03
2022-08-10T14:18:12.626Z,31.23
2022-08-10T14:28:22.751Z,31.04
2022-08-10T14:38:30.947Z,30.96
2022-08-10T14:48:41.220Z,30.52
2022-08-10T14:59:05.445Z,30.83
2022-08-10T15:09:19.823Z,30.67
2022-08-10T15:20:01.075Z,30.60
2022-08-10T15:29:58.370Z,30.91
2022-08-10T15:40:21.388Z,31.45
2022-08-10T15:50:39.877Z,31.79
2022-08-10T16:00:51.072Z,31.70
2022-08-10T16:11:03.590Z,32.02
2022-08-10T16:21:15.409Z,32.12
2022-08-10T16:31:23.633Z,33.46
2022-08-10T16:42:04.613Z,33.53
2022-08-10T16:51:56.034Z,34.03
2022-08-10T17:02:02.230Z,33.34
2022-08-10T17:12:11.779Z,34.89
2022-08-10T17:22:19.602Z,35.71
2022-08-10T17:32:32.131Z,37.27
2022-08-10T17:42:39.317Z,37.03
2022-08-10T17:52:45.405Z,36.70
2022-08-10T18:02:50.994Z,35.53
2022-08-10T18:12:58.050Z,33.34
2022-08-10T18:23:03.471Z,30.66
2022-08-10T18:33:12.214Z,29.38
2022-08-10T18:44:06.117Z,28.51
2022-08-10T18:53:53.324Z,27.93
2022-08-10T19:04:19.455Z,27.27
2022-08-10T19:14:35.966Z,26.75
2022-08-10T19:24:52.106Z,26.33
2022-08-10T19:35:04.799Z,26.38
2022-08-10T19:46:00.582Z,26.37
2022-08-10T19:55:52.821Z,26.20
2022-08-10T20:06:18.148Z,26.00
2022-08-10T20:16:31.277Z,25.95
2022-08-10T20:26:42.093Z,25.65
2022-08-10T20:36:58.944Z,25.42
2022-08-10T20:47:10.673Z,25.07
2022-08-10T20:57:54.165Z,24.87
2022-08-10T21:08:15.353Z,24.87
2022-08-10T21:18:43.884Z,24.77
2022-08-10T21:29:37.976Z,24.62
2022-08-10T21:40:34.838Z,24.51
2022-08-10T21:51:10.296Z,24.22
2022-08-10T22:01:55.615Z,24.02
2022-08-10T22:12:30.978Z,23.78
2022-08-10T22:23:03.267Z,23.61
2022-08-10T22:33:48.019Z,23.43
2022-08-10T22:44:17.174Z,23.27
2022-08-10T22:54:43.271Z,23.18
2022-08-10T23:04:53.936Z,22.89
2022-08-10T23:15:18.443Z,23.01
2022-08-10T23:25:30.046Z,22.83
2022-08-10T23:36:12.974Z,22.52
2022-08-10T23:46:14.082Z,22.52
2022-08-10T23:56:22.040Z,22.07
